Atlantic Beach, North Carolina
Current Conditions -  °F | °C
As of 9:58 PM on Saturday 25 Oct 2014 (Local Time) from KMRH Reporting Station
Clear Clear  
Wind Chill: 65°   Ceiling: Unl
Heat Index: 65°   Visibility: 10mi
Dew Point: 56°   Wind: 8mph
Humidity: 73%   Direction: 260°W
Pressure: 29.9"   Gusts: NA
Location:  34.7°N, 76.74°W
Report Text: KMRH 260158Z AUTO 26007KT 10SM CLR 18/13 A2990 RMK AO2 SLP124 T01830133 TSNO $
Loading
Personal Weather Stations






























Interactive Weather Map New forecast layout! Learn more

10-Day Weather Forecast

Advertisements
Track Severe Weather on mobile